Time;durP1;ratioP1;P1;durP2;ratioP2;P2;SDS_P1;SDS_P2;PMS_P1;PMS_P2;Temp;Humidity;BMP_temperature;BMP_pressure;BME280_temperature;BME280_humidity;BME280_pressure;Samples;Min_cycle;Max_cycle;Signal;HPM_P1;HPM_P2
2023/06/10 00:00:14;;;;;;;12.07;8.33;;;19.60;67.50;;;;;;5008676;28;20665;-70
2023/06/10 00:02:40;;;;;;;12.83;9.60;;;19.60;67.50;;;;;;5004944;28;21363;-71
2023/06/10 00:05:07;;;;;;;11.10;9.53;;;19.60;67.30;;;;;;5008898;28;20554;-69
2023/06/10 00:07:33;;;;;;;11.67;8.60;;;19.50;67.50;;;;;;5005050;28;20801;-69
2023/06/10 00:10:01;;;;;;;12.17;8.20;;;19.50;67.60;;;;;;5008270;28;20467;-69
2023/06/10 00:12:28;;;;;;;12.00;8.93;;;19.50;67.60;;;;;;5004188;28;20596;-71
2023/06/10 00:14:54;;;;;;;12.23;8.87;;;19.50;67.90;;;;;;5014009;28;20438;-69
2023/06/10 00:17:20;;;;;;;10.83;8.73;;;19.40;68.20;;;;;;5008797;28;20436;-69
2023/06/10 00:19:46;;;;;;;11.03;9.30;;;19.40;68.30;;;;;;5010308;28;20283;-70
2023/06/10 00:22:12;;;;;;;10.90;8.80;;;19.30;68.30;;;;;;4999919;28;20300;-71
2023/06/10 00:24:38;;;;;;;12.47;8.37;;;19.20;68.50;;;;;;5008651;28;21032;-71
2023/06/10 00:27:06;;;;;;;11.90;8.57;;;19.20;68.30;;;;;;5009629;28;20260;-71
2023/06/10 00:29:32;;;;;;;11.77;9.57;;;19.20;68.30;;;;;;5009303;28;20828;-70
2023/06/10 00:31:58;;;;;;;10.57;8.83;;;19.20;68.60;;;;;;5006119;28;20468;-70
2023/06/10 00:34:24;;;;;;;12.70;9.67;;;19.20;68.60;;;;;;5011912;28;20207;-71
2023/06/10 00:36:50;;;;;;;11.40;8.67;;;19.10;68.80;;;;;;5011992;28;20434;-69
2023/06/10 00:39:16;;;;;;;13.17;9.37;;;19.10;68.90;;;;;;5010433;28;20433;-70
2023/06/10 00:41:42;;;;;;;13.17;8.90;;;19.10;69.10;;;;;;5007444;28;20685;-72
2023/06/10 00:44:07;;;;;;;12.10;9.30;;;19.00;69.20;;;;;;5008981;28;20471;-71
2023/06/10 00:46:34;;;;;;;12.87;9.43;;;19.00;69.20;;;;;;5005512;28;20185;-72
2023/06/10 00:49:00;;;;;;;13.67;9.00;;;18.90;69.40;;;;;;5010880;28;20685;-70
2023/06/10 00:51:26;;;;;;;13.77;9.43;;;18.90;69.50;;;;;;5006283;28;20568;-69
2023/06/10 00:53:52;;;;;;;12.20;8.60;;;18.90;69.50;;;;;;5009706;28;20183;-68
2023/06/10 00:56:18;;;;;;;11.60;9.00;;;18.80;69.70;;;;;;5003009;28;20980;-71
2023/06/10 00:58:44;;;;;;;12.70;8.90;;;18.80;69.90;;;;;;5010888;28;20432;-69
2023/06/10 01:01:11;;;;;;;12.10;8.43;;;18.80;69.90;;;;;;5001515;28;20204;-70
2023/06/10 01:03:37;;;;;;;15.03;9.17;;;18.70;69.90;;;;;;5003085;28;20439;-69
2023/06/10 01:06:14;;;;;;;12.87;10.20;;;18.70;70.10;;;;;;5003218;28;20936;-72
2023/06/10 01:09:11;;;;;;;12.63;9.60;;;18.70;70.10;;;;;;5005606;28;20436;-69
2023/06/10 01:11:47;;;;;;;12.47;9.93;;;18.60;70.20;;;;;;4999210;28;20530;-69
2023/06/10 01:14:14;;;;;;;13.27;9.57;;;18.60;70.20;;;;;;5005602;28;20428;-69
2023/06/10 01:16:40;;;;;;;12.87;9.53;;;18.60;70.20;;;;;;5010790;28;20916;-69
2023/06/10 01:19:07;;;;;;;12.53;9.50;;;18.50;70.40;;;;;;5003349;28;20421;-69
2023/06/10 01:21:33;;;;;;;15.03;9.90;;;18.50;70.40;;;;;;5006977;28;20466;-70
2023/06/10 01:23:59;;;;;;;13.67;8.90;;;18.50;70.40;;;;;;5009246;28;20437;-70
2023/06/10 01:26:33;;;;;;;13.60;9.83;;;18.50;70.50;;;;;;5011409;28;20190;-70
2023/06/10 01:29:07;;;;;;;10.80;9.07;;;18.50;70.50;;;;;;5007247;28;20533;-70
2023/06/10 01:31:46;;;;;;;12.27;9.10;;;18.50;70.50;;;;;;5003259;28;20510;-70
2023/06/10 01:34:17;;;;;;;14.13;9.07;;;18.50;70.50;;;;;;5001526;28;20891;-69
2023/06/10 01:36:47;;;;;;;13.67;8.90;;;18.40;70.70;;;;;;5011026;28;20770;-71
2023/06/10 01:39:14;;;;;;;11.87;9.23;;;18.40;70.50;;;;;;5008292;28;20823;-70
2023/06/10 01:41:40;;;;;;;11.67;9.20;;;18.30;70.80;;;;;;5007593;28;20544;-70
2023/06/10 01:44:06;;;;;;;11.73;8.77;;;18.20;71.00;;;;;;5010063;28;20466;-71
2023/06/10 01:46:31;;;;;;;13.17;8.63;;;18.20;71.00;;;;;;5002866;28;20454;-72
2023/06/10 01:48:58;;;;;;;12.20;8.97;;;18.10;71.10;;;;;;5009346;28;20775;-70
2023/06/10 01:51:24;;;;;;;12.33;8.17;;;18.20;71.00;;;;;;4998406;28;20707;-69
2023/06/10 01:53:49;;;;;;;11.60;7.60;;;18.20;71.00;;;;;;5007770;28;20433;-69
2023/06/10 01:56:17;;;;;;;12.33;7.53;;;18.10;71.00;;;;;;5004100;28;20276;-70
2023/06/10 01:58:43;;;;;;;12.07;8.57;;;18.20;71.00;;;;;;5005091;28;20265;-70
2023/06/10 02:01:11;;;;;;;11.63;8.60;;;18.20;71.00;;;;;;5004622;28;20971;-71
2023/06/10 02:03:36;;;;;;;14.70;8.50;;;18.20;71.00;;;;;;5008561;28;21384;-69
2023/06/10 02:06:02;;;;;;;11.77;8.70;;;18.20;71.10;;;;;;5007773;28;20513;-69
2023/06/10 02:08:27;;;;;;;11.83;8.27;;;18.10;71.10;;;;;;5008748;28;20187;-70
2023/06/10 02:10:53;;;;;;;13.40;8.70;;;18.00;71.30;;;;;;5004140;28;20228;-69
2023/06/10 02:13:19;;;;;;;13.33;8.57;;;18.00;71.30;;;;;;5005010;28;20183;-70
2023/06/10 02:15:44;;;;;;;13.20;8.43;;;18.00;71.30;;;;;;5006078;28;20190;-69
2023/06/10 02:18:11;;;;;;;12.20;9.23;;;18.00;71.40;;;;;;5009898;28;20665;-70
2023/06/10 02:20:38;;;;;;;11.47;8.47;;;18.10;71.10;;;;;;5005592;28;20181;-71
2023/06/10 02:23:03;;;;;;;13.43;9.27;;;18.10;71.10;;;;;;5005373;28;20444;-70
2023/06/10 02:25:29;;;;;;;11.93;8.70;;;18.00;71.30;;;;;;5001938;28;21002;-69
2023/06/10 02:27:55;;;;;;;12.60;8.50;;;17.90;71.40;;;;;;5009132;28;20202;-70
2023/06/10 02:30:20;;;;;;;12.67;9.03;;;17.80;71.70;;;;;;5008377;28;20267;-69
2023/06/10 02:32:47;;;;;;;11.20;7.77;;;17.80;71.80;;;;;;5002003;28;20209;-70
2023/06/10 02:35:14;;;;;;;10.60;7.80;;;17.80;71.80;;;;;;5009010;28;20710;-71
2023/06/10 02:37:40;;;;;;;9.60;7.97;;;17.80;71.70;;;;;;5006477;28;20431;-70
2023/06/10 02:40:06;;;;;;;10.27;7.47;;;17.80;71.70;;;;;;5003340;28;20504;-71
2023/06/10 02:42:32;;;;;;;10.47;6.80;;;17.70;71.70;;;;;;5006610;28;20215;-69
2023/06/10 02:44:57;;;;;;;12.93;8.43;;;17.70;71.70;;;;;;5010454;28;20436;-71
2023/06/10 02:47:23;;;;;;;12.50;7.70;;;17.70;71.70;;;;;;5004949;28;20319;-70
2023/06/10 02:49:48;;;;;;;11.43;8.43;;;17.70;71.80;;;;;;5000875;28;20292;-69
2023/06/10 02:52:14;;;;;;;10.07;7.27;;;17.70;71.80;;;;;;5007151;28;20271;-70
2023/06/10 02:54:40;;;;;;;10.20;7.87;;;17.60;71.80;;;;;;5003589;28;20200;-70
2023/06/10 02:57:06;;;;;;;12.00;8.50;;;17.50;71.80;;;;;;5001099;28;20189;-70
2023/06/10 02:59:31;;;;;;;9.70;7.30;;;17.50;71.80;;;;;;5005283;28;20198;-70
2023/06/10 03:01:57;;;;;;;10.87;7.33;;;17.50;72.00;;;;;;5001443;28;20461;-71
2023/06/10 03:04:25;;;;;;;12.60;7.70;;;17.50;72.00;;;;;;5006316;28;20182;-70
2023/06/10 03:06:50;;;;;;;11.17;8.00;;;17.60;72.00;;;;;;5007011;28;20203;-70
2023/06/10 03:09:16;;;;;;;15.03;8.13;;;17.50;72.00;;;;;;5005233;28;20464;-69
2023/06/10 03:11:42;;;;;;;9.97;7.80;;;17.50;72.10;;;;;;5000162;28;20222;-70
2023/06/10 03:14:07;;;;;;;8.90;6.80;;;17.50;72.10;;;;;;5004569;28;20182;-70
2023/06/10 03:16:33;;;;;;;11.60;8.00;;;17.50;72.10;;;;;;5005811;28;20268;-70
2023/06/10 03:18:58;;;;;;;9.53;6.70;;;17.40;72.40;;;;;;5002839;28;20194;-69
2023/06/10 03:21:24;;;;;;;10.60;6.90;;;17.40;72.40;;;;;;4999930;28;20218;-69
2023/06/10 03:23:50;;;;;;;11.37;7.23;;;17.40;72.30;;;;;;5004299;28;20183;-70
2023/06/10 03:26:16;;;;;;;10.57;7.43;;;17.40;72.60;;;;;;5004485;28;20930;-70
2023/06/10 03:28:42;;;;;;;11.10;7.53;;;17.40;72.40;;;;;;5002375;28;20214;-71
2023/06/10 03:31:07;;;;;;;11.90;7.77;;;17.40;72.40;;;;;;4999764;28;20498;-69
2023/06/10 03:33:33;;;;;;;10.47;7.23;;;17.40;72.40;;;;;;5003977;28;20208;-70
2023/06/10 03:35:59;;;;;;;9.40;7.53;;;17.30;72.40;;;;;;5011811;28;20271;-70
2023/06/10 03:38:25;;;;;;;8.80;6.70;;;17.30;72.60;;;;;;5009350;28;20186;-69
2023/06/10 03:40:50;;;;;;;10.97;7.10;;;17.30;72.70;;;;;;5005597;28;20211;-71
2023/06/10 03:43:16;;;;;;;14.87;7.60;;;17.30;72.70;;;;;;5008551;28;20214;-71
2023/06/10 03:45:41;;;;;;;11.97;8.23;;;17.40;72.40;;;;;;5008220;28;20183;-69
2023/06/10 03:48:08;;;;;;;12.10;8.70;;;17.30;72.70;;;;;;5012823;28;20707;-68
2023/06/10 03:50:34;;;;;;;12.93;8.13;;;17.40;72.70;;;;;;5012165;28;20217;-70
2023/06/10 03:52:59;;;;;;;10.97;8.03;;;17.40;72.60;;;;;;5006813;28;20461;-69
2023/06/10 03:55:25;;;;;;;11.17;7.67;;;17.40;72.90;;;;;;5008262;28;20574;-70
2023/06/10 03:57:51;;;;;;;12.57;8.23;;;17.40;72.90;;;;;;5005920;28;20190;-70
2023/06/10 04:00:17;;;;;;;11.33;8.07;;;17.40;72.90;;;;;;5012692;28;20178;-70
2023/06/10 04:02:48;;;;;;;12.70;7.87;;;17.40;72.90;;;;;;5008905;28;20221;-70
2023/06/10 04:05:14;;;;;;;9.27;6.70;;;17.40;73.00;;;;;;5013752;28;20416;-70
2023/06/10 04:07:42;;;;;;;9.63;7.90;;;17.40;73.00;;;;;;5012678;28;20840;-70
2023/06/10 04:10:09;;;;;;;10.77;7.47;;;17.40;72.90;;;;;;5010076;28;20468;-70
2023/06/10 04:12:35;;;;;;;11.93;7.40;;;17.40;72.90;;;;;;5000905;28;20469;-70
2023/06/10 04:15:01;;;;;;;10.73;6.50;;;17.40;73.00;;;;;;5010819;28;20495;-71
2023/06/10 04:17:27;;;;;;;10.27;7.90;;;17.50;72.90;;;;;;5006495;28;20788;-70
2023/06/10 04:19:54;;;;;;;10.73;8.00;;;17.50;72.90;;;;;;5011234;28;20504;-70
2023/06/10 04:22:20;;;;;;;10.30;7.70;;;17.40;73.00;;;;;;4995161;28;20260;-69
2023/06/10 04:24:46;;;;;;;11.13;7.57;;;17.50;73.00;;;;;;5007925;28;20530;-69
2023/06/10 04:27:11;;;;;;;12.07;7.37;;;17.50;73.00;;;;;;5008962;28;20182;-69
2023/06/10 04:29:37;;;;;;;12.07;7.87;;;17.60;72.90;;;;;;5011213;28;20209;-71
2023/06/10 04:32:03;;;;;;;10.17;7.30;;;17.60;72.90;;;;;;5005054;28;20273;-69
2023/06/10 04:34:28;;;;;;;11.50;7.50;;;17.60;72.90;;;;;;5012008;28;20711;-73
2023/06/10 04:36:54;;;;;;;10.97;7.23;;;17.70;72.70;;;;;;5011796;28;20422;-71
2023/06/10 04:39:20;;;;;;;9.27;6.67;;;17.70;72.70;;;;;;5006116;28;20198;-72
2023/06/10 04:41:46;;;;;;;10.23;6.80;;;17.70;72.70;;;;;;5003120;28;20216;-72
2023/06/10 04:44:12;;;;;;;11.00;7.20;;;17.80;72.90;;;;;;5008155;28;20185;-73
2023/06/10 04:46:37;;;;;;;9.47;6.87;;;17.90;72.90;;;;;;5012912;28;20435;-72
2023/06/10 04:49:04;;;;;;;9.27;6.13;;;18.00;72.60;;;;;;5013053;28;20426;-73
2023/06/10 04:51:31;;;;;;;11.77;7.47;;;18.00;72.60;;;;;;5008717;28;20765;-75
2023/06/10 04:53:57;;;;;;;13.80;8.00;;;18.10;72.40;;;;;;5008488;28;20426;-73
2023/06/10 04:56:23;;;;;;;11.60;7.83;;;18.10;72.40;;;;;;5006012;28;20520;-75
2023/06/10 04:58:49;;;;;;;10.57;7.63;;;18.10;72.40;;;;;;5006225;28;20176;-75
2023/06/10 05:01:16;;;;;;;11.47;8.13;;;18.20;72.40;;;;;;5000376;28;21270;-75
2023/06/10 05:03:41;;;;;;;11.30;7.90;;;18.30;72.10;;;;;;5007709;28;20519;-73
2023/06/10 05:06:07;;;;;;;10.97;8.00;;;18.30;71.70;;;;;;5006989;28;20602;-75
2023/06/10 05:08:33;;;;;;;11.83;8.03;;;18.30;71.60;;;;;;4997961;28;20194;-75
2023/06/10 05:10:59;;;;;;;10.57;7.83;;;18.40;71.10;;;;;;5003132;28;21092;-73
2023/06/10 05:13:24;;;;;;;10.53;7.57;;;18.40;71.30;;;;;;5005402;28;20423;-76
2023/06/10 05:15:50;;;;;;;10.83;7.97;;;18.40;71.00;;;;;;5001478;28;20188;-75
2023/06/10 05:18:15;;;;;;;11.63;8.13;;;18.60;70.80;;;;;;5003622;28;20190;-75
2023/06/10 05:20:41;;;;;;;12.10;7.90;;;18.60;70.50;;;;;;5005330;28;20185;-73
2023/06/10 05:23:07;;;;;;;12.13;8.10;;;18.60;70.50;;;;;;5003051;28;20649;-71
2023/06/10 05:25:33;;;;;;;10.93;7.60;;;18.60;70.50;;;;;;5004926;28;20221;-72
2023/06/10 05:27:59;;;;;;;10.93;8.20;;;18.60;70.20;;;;;;5007959;28;20196;-72
2023/06/10 05:30:25;;;;;;;13.37;8.17;;;18.70;70.10;;;;;;5011123;28;20464;-75
2023/06/10 05:32:51;;;;;;;12.03;7.73;;;18.70;70.10;;;;;;5008601;28;20467;-74
2023/06/10 05:35:17;;;;;;;10.40;7.80;;;18.80;69.90;;;;;;5010189;28;20852;-73
2023/06/10 05:37:43;;;;;;;11.27;7.90;;;18.90;69.80;;;;;;5005922;28;20419;-72
2023/06/10 05:40:09;;;;;;;11.87;8.90;;;19.00;69.80;;;;;;5011668;28;20184;-74
2023/06/10 05:42:35;;;;;;;12.40;8.40;;;19.10;69.50;;;;;;5007694;28;20617;-74
2023/06/10 05:45:00;;;;;;;10.30;7.80;;;19.20;69.40;;;;;;5010004;28;21376;-73
2023/06/10 05:47:26;;;;;;;12.50;8.50;;;19.20;69.50;;;;;;5011906;28;20279;-72
2023/06/10 05:49:52;;;;;;;15.57;8.60;;;19.20;69.20;;;;;;5011762;28;20216;-71
2023/06/10 05:52:18;;;;;;;13.40;9.30;;;19.30;69.40;;;;;;5003511;28;20218;-72
2023/06/10 05:54:43;;;;;;;15.10;7.97;;;19.20;69.20;;;;;;5009282;28;20661;-71
2023/06/10 05:57:10;;;;;;;14.53;9.30;;;19.20;69.40;;;;;;5005773;28;20449;-73
2023/06/10 05:59:35;;;;;;;10.80;8.10;;;19.30;69.40;;;;;;5011694;28;20277;-72
2023/06/10 06:02:01;;;;;;;11.87;7.53;;;19.40;69.50;;;;;;5020288;28;20468;-73
2023/06/10 06:04:27;;;;;;;11.57;7.90;;;19.40;69.10;;;;;;5021580;28;20193;-72
2023/06/10 06:06:52;;;;;;;12.60;8.73;;;19.40;69.40;;;;;;5019827;28;20194;-71
2023/06/10 06:09:18;;;;;;;12.50;8.70;;;19.50;69.40;;;;;;5019894;28;20206;-73
2023/06/10 06:11:43;;;;;;;12.30;8.70;;;19.60;68.90;;;;;;5017242;28;20209;-71
2023/06/10 06:14:09;;;;;;;14.20;8.37;;;19.50;69.10;;;;;;5017244;28;20213;-71
2023/06/10 06:16:35;;;;;;;15.40;8.57;;;19.40;69.40;;;;;;5007423;28;20186;-71
2023/06/10 06:19:00;;;;;;;13.40;8.17;;;19.50;69.10;;;;;;5005000;28;20189;-73
2023/06/10 06:21:26;;;;;;;11.43;8.30;;;19.50;69.10;;;;;;5003066;28;20213;-72
2023/06/10 06:23:51;;;;;;;10.23;8.40;;;19.70;69.20;;;;;;5012273;28;20277;-71
2023/06/10 06:26:17;;;;;;;10.50;7.83;;;19.80;68.90;;;;;;5009858;28;20704;-71
2023/06/10 06:28:43;;;;;;;10.70;7.27;;;19.90;68.60;;;;;;5011215;28;20190;-72
2023/06/10 06:31:08;;;;;;;10.30;7.77;;;20.00;68.80;;;;;;5010713;28;20397;-71
2023/06/10 06:33:34;;;;;;;13.13;8.50;;;20.10;68.60;;;;;;5013143;28;20228;-72
2023/06/10 06:36:02;;;;;;;12.87;7.70;;;20.10;68.50;;;;;;5008350;28;20704;-72
2023/06/10 06:38:28;;;;;;;10.67;8.10;;;20.10;68.60;;;;;;5011751;28;20182;-72
2023/06/10 06:40:54;;;;;;;10.13;7.63;;;20.00;68.80;;;;;;5006040;28;20449;-71
2023/06/10 06:43:19;;;;;;;11.33;7.57;;;20.10;68.90;;;;;;5010760;28;20189;-73
2023/06/10 06:45:45;;;;;;;11.00;7.93;;;20.10;69.10;;;;;;5007956;28;20264;-72
2023/06/10 06:48:12;;;;;;;12.30;7.57;;;20.30;68.50;;;;;;5008347;28;20213;-72
2023/06/10 06:50:37;;;;;;;11.37;7.50;;;20.40;68.20;;;;;;5007429;28;20483;-72
2023/06/10 06:53:04;;;;;;;11.57;7.57;;;20.50;68.20;;;;;;5007159;28;20990;-72
2023/06/10 06:55:29;;;;;;;11.83;7.10;;;20.50;68.20;;;;;;5004720;28;20193;-72
2023/06/10 06:57:55;;;;;;;10.00;7.20;;;20.70;68.00;;;;;;5007344;28;20426;-72
2023/06/10 07:00:21;;;;;;;17.50;7.50;;;20.90;67.60;;;;;;5005954;28;20197;-71
2023/06/10 07:02:47;;;;;;;10.43;7.17;;;21.10;67.20;;;;;;5002908;28;20222;-71
2023/06/10 07:05:12;;;;;;;9.33;6.30;;;21.20;66.70;;;;;;5004183;28;20425;-71
2023/06/10 07:07:38;;;;;;;12.17;7.80;;;21.30;66.90;;;;;;5008903;28;20193;-71
2023/06/10 07:10:04;;;;;;;10.37;7.43;;;21.40;66.60;;;;;;5008910;28;20209;-72
2023/06/10 07:12:30;;;;;;;11.90;7.60;;;21.40;66.30;;;;;;5006551;28;20299;-71
2023/06/10 07:14:55;;;;;;;9.90;6.50;;;21.50;66.00;;;;;;5007899;28;21001;-72
2023/06/10 07:17:21;;;;;;;9.23;6.90;;;21.70;65.60;;;;;;5009474;28;20192;-72
2023/06/10 07:19:46;;;;;;;11.60;7.40;;;21.50;65.80;;;;;;5005987;28;20192;-71
2023/06/10 07:22:12;;;;;;;9.20;7.30;;;21.50;66.10;;;;;;5010036;28;20211;-72
2023/06/10 07:24:37;;;;;;;10.63;6.73;;;21.60;66.10;;;;;;5010608;28;20201;-71
2023/06/10 07:27:03;;;;;;;9.70;7.60;;;21.80;65.80;;;;;;5008936;28;20269;-72
2023/06/10 07:29:29;;;;;;;11.33;7.27;;;21.90;65.60;;;;;;5013516;28;20274;-71
2023/06/10 07:31:54;;;;;;;13.60;7.10;;;22.00;65.30;;;;;;5010775;28;20515;-71
2023/06/10 07:34:20;;;;;;;11.03;8.10;;;22.00;65.30;;;;;;5014226;28;20193;-72
2023/06/10 07:36:46;;;;;;;10.30;7.07;;;22.00;65.00;;;;;;5013565;28;20252;-72
2023/06/10 07:39:11;;;;;;;10.10;6.50;;;22.00;65.00;;;;;;5015407;28;20189;-72
2023/06/10 07:41:37;;;;;;;11.10;8.30;;;22.10;64.50;;;;;;5007633;28;20288;-72
2023/06/10 07:44:03;;;;;;;10.27;7.97;;;22.00;65.00;;;;;;5011714;28;20263;-72
2023/06/10 07:46:28;;;;;;;10.47;7.30;;;21.80;65.10;;;;;;5012113;28;20663;-71
2023/06/10 07:48:54;;;;;;;10.03;7.57;;;21.80;65.80;;;;;;5010290;28;20411;-72
2023/06/10 07:51:20;;;;;;;10.13;7.20;;;21.90;65.60;;;;;;5007507;28;20235;-71
2023/06/10 07:53:46;;;;;;;15.40;8.23;;;22.00;65.40;;;;;;5007192;28;20527;-72
2023/06/10 07:56:12;;;;;;;12.50;8.30;;;22.20;65.00;;;;;;5012536;28;20212;-74
2023/06/10 07:58:37;;;;;;;12.00;7.70;;;22.20;64.70;;;;;;5006750;28;20198;-72
2023/06/10 08:01:03;;;;;;;13.07;8.50;;;22.20;64.80;;;;;;5009587;28;20224;-72
2023/06/10 08:03:28;;;;;;;18.20;9.07;;;22.40;64.70;;;;;;5008252;28;20195;-73
2023/06/10 08:05:54;;;;;;;11.30;8.03;;;22.40;64.70;;;;;;5005231;28;20208;-72
2023/06/10 08:08:20;;;;;;;11.13;6.87;;;22.30;64.50;;;;;;5010735;28;21040;-72
2023/06/10 08:10:45;;;;;;;12.90;9.10;;;22.20;65.00;;;;;;5009871;28;20221;-71
2023/06/10 08:13:11;;;;;;;12.10;7.77;;;22.40;64.50;;;;;;5005792;28;20183;-72
2023/06/10 08:15:36;;;;;;;11.33;7.70;;;22.60;64.50;;;;;;5005647;28;20663;-72
2023/06/10 08:18:02;;;;;;;12.07;7.27;;;22.50;64.20;;;;;;5011216;28;20197;-72
2023/06/10 08:20:27;;;;;;;11.83;7.73;;;22.60;64.40;;;;;;5014048;28;20274;-71
2023/06/10 08:22:53;;;;;;;9.80;7.17;;;22.60;64.10;;;;;;5010140;28;20216;-72
2023/06/10 08:25:21;;;;;;;12.00;8.37;;;22.60;64.20;;;;;;5011440;28;20661;-71
2023/06/10 08:27:46;;;;;;;9.80;7.80;;;22.80;63.80;;;;;;5012155;28;20290;-72
2023/06/10 08:30:13;;;;;;;11.60;7.80;;;23.00;63.50;;;;;;5013783;28;20627;-73
2023/06/10 08:32:38;;;;;;;10.73;7.30;;;23.00;63.20;;;;;;5014424;28;20689;-72
2023/06/10 08:35:04;;;;;;;11.97;7.33;;;23.20;62.80;;;;;;5014454;28;20468;-72
2023/06/10 08:37:30;;;;;;;11.27;7.40;;;23.20;62.30;;;;;;5012182;28;20283;-72
2023/06/10 08:39:56;;;;;;;9.87;7.20;;;23.20;62.80;;;;;;5012183;28;20574;-71
2023/06/10 08:42:48;;;;;;;9.97;7.43;;;23.20;62.60;;;;;;5009419;28;20223;-71
2023/06/10 08:45:20;;;;;;;10.97;7.33;;;23.40;61.90;;;;;;5008644;28;20187;-71
2023/06/10 08:47:49;;;;;;;10.27;6.80;;;23.30;62.00;;;;;;5017101;28;21198;-72
2023/06/10 08:50:16;;;;;;;9.43;6.53;;;23.50;61.30;;;;;;5017260;28;20462;-72
2023/06/10 08:52:44;;;;;;;9.47;6.90;;;23.60;61.50;;;;;;5012816;28;20467;-71
2023/06/10 08:55:19;;;;;;;9.33;7.17;;;23.70;60.30;;;;;;5001514;28;20419;-71
2023/06/10 08:57:45;;;;;;;11.83;7.50;;;23.70;60.40;;;;;;5009179;28;20976;-71
2023/06/10 09:00:13;;;;;;;8.30;7.03;;;23.70;60.30;;;;;;5005999;28;20459;-71
2023/06/10 09:02:38;;;;;;;9.83;7.07;;;23.70;60.10;;;;;;5006094;28;20459;-72
2023/06/10 09:05:05;;;;;;;7.97;6.23;;;23.90;59.70;;;;;;5010383;28;20422;-71
2023/06/10 09:07:31;;;;;;;9.23;6.60;;;23.90;59.20;;;;;;5006087;28;20275;-74
2023/06/10 09:09:58;;;;;;;10.03;7.50;;;23.90;59.30;;;;;;5010351;28;20549;-72
2023/06/10 09:12:24;;;;;;;10.10;6.60;;;24.00;58.90;;;;;;5004585;28;20497;-70
2023/06/10 09:14:50;;;;;;;8.57;6.53;;;24.10;58.80;;;;;;5008974;28;20425;-72
2023/06/10 09:17:16;;;;;;;8.80;7.00;;;24.20;58.10;;;;;;5008602;28;20536;-73
2023/06/10 09:19:44;;;;;;;10.80;7.43;;;24.20;58.50;;;;;;5009131;28;20184;-72
2023/06/10 09:22:09;;;;;;;9.10;6.97;;;24.30;58.50;;;;;;5005275;28;20464;-71
2023/06/10 09:24:36;;;;;;;8.87;6.60;;;24.50;58.10;;;;;;5008948;28;20478;-71
2023/06/10 09:27:06;;;;;;;8.97;7.30;;;24.60;57.70;;;;;;5008953;28;20205;-71
2023/06/10 09:29:51;;;;;;;9.63;7.90;;;24.60;58.00;;;;;;5009230;28;20863;-72
2023/06/10 09:32:18;;;;;;;10.67;7.40;;;24.40;58.50;;;;;;5008788;28;20472;-71
2023/06/10 09:34:44;;;;;;;11.07;7.40;;;24.50;58.20;;;;;;5012984;28;20423;-73
2023/06/10 09:37:12;;;;;;;8.77;6.93;;;24.40;58.50;;;;;;5009047;28;20425;-71
2023/06/10 09:39:37;;;;;;;9.10;7.20;;;24.40;58.20;;;;;;5012003;28;20433;-72
2023/06/10 09:42:16;;;;;;;9.17;7.20;;;24.50;58.10;;;;;;5009341;28;20466;-72
2023/06/10 09:44:48;;;;;;;8.00;6.80;;;24.70;58.10;;;;;;5005591;28;20184;-72
2023/06/10 09:47:20;;;;;;;7.57;6.30;;;24.80;57.60;;;;;;5010320;28;20442;-73
2023/06/10 09:49:46;;;;;;;11.37;6.90;;;25.00;57.40;;;;;;5012329;28;21179;-72
2023/06/10 09:52:11;;;;;;;8.13;6.83;;;25.30;56.90;;;;;;5008766;28;20562;-71
2023/06/10 09:54:37;;;;;;;9.43;7.57;;;25.40;55.60;;;;;;5014484;28;20655;-72
2023/06/10 09:57:09;;;;;;;11.97;7.30;;;25.40;55.70;;;;;;5010984;28;20521;-72
2023/06/10 09:59:37;;;;;;;10.43;7.70;;;25.40;56.00;;;;;;5011526;28;20192;-72
2023/06/10 10:02:04;;;;;;;10.27;7.87;;;25.40;56.20;;;;;;5007005;28;20475;-70
2023/06/10 10:04:29;;;;;;;8.73;7.67;;;25.40;56.20;;;;;;5004796;28;20435;-72
2023/06/10 10:06:55;;;;;;;9.80;7.13;;;25.50;56.10;;;;;;5007548;28;20519;-73
2023/06/10 10:09:21;;;;;;;8.20;6.97;;;25.70;55.80;;;;;;5001219;28;20254;-73
2023/06/10 10:11:48;;;;;;;10.67;7.90;;;25.80;55.60;;;;;;5001997;28;20216;-72
2023/06/10 10:14:15;;;;;;;10.17;7.33;;;25.60;55.70;;;;;;5008023;28;20194;-73
2023/06/10 10:16:42;;;;;;;10.80;7.83;;;25.60;56.00;;;;;;5004827;28;20430;-72
2023/06/10 10:19:11;;;;;;;11.00;7.13;;;25.60;55.70;;;;;;4999263;28;20761;-72
2023/06/10 10:21:46;;;;;;;8.57;7.20;;;25.40;55.80;;;;;;5000231;28;20467;-72
2023/06/10 10:24:20;;;;;;;9.57;7.37;;;25.80;55.40;;;;;;5002587;28;20558;-71
2023/06/10 10:26:49;;;;;;;12.27;7.77;;;26.30;54.80;;;;;;5007757;28;20510;-73
2023/06/10 10:29:24;;;;;;;9.37;7.33;;;26.30;53.20;;;;;;5009294;28;20445;-72
2023/06/10 10:31:53;;;;;;;11.67;7.00;;;26.40;53.80;;;;;;5005752;28;20466;-72
2023/06/10 10:34:25;;;;;;;8.30;6.73;;;26.60;51.80;;;;;;5007979;28;20435;-73
2023/06/10 10:36:51;;;;;;;7.87;6.50;;;26.50;52.40;;;;;;5009545;28;20498;-72
2023/06/10 10:39:18;;;;;;;9.90;7.80;;;26.90;52.20;;;;;;5008098;28;20474;-73
2023/06/10 10:41:44;;;;;;;11.33;7.50;;;27.30;51.80;;;;;;5002351;28;20461;-72
2023/06/10 10:44:11;;;;;;;9.77;7.30;;;27.60;51.60;;;;;;5006204;28;20519;-73
2023/06/10 10:46:44;;;;;;;10.80;7.43;;;27.90;49.90;;;;;;5011187;28;21003;-71
2023/06/10 10:49:13;;;;;;;7.73;6.73;;;28.10;48.70;;;;;;5012287;28;20771;-72
2023/06/10 10:51:55;;;;;;;8.30;6.93;;;28.20;48.10;;;;;;5006523;28;20990;-72
2023/06/10 10:54:32;;;;;;;10.27;7.33;;;27.90;48.60;;;;;;5012268;28;20515;-72
2023/06/10 10:57:13;;;;;;;8.23;6.80;;;28.00;48.10;;;;;;5005221;28;20420;-74
2023/06/10 10:59:59;;;;;;;9.83;6.30;;;27.70;48.90;;;;;;5004511;28;20436;-72
2023/06/10 11:02:43;;;;;;;7.03;5.83;;;28.00;47.80;;;;;;5011279;28;20464;-72
2023/06/10 11:05:09;;;;;;;8.90;6.43;;;28.30;47.40;;;;;;5014418;28;20417;-72
2023/06/10 11:07:36;;;;;;;10.63;7.47;;;28.50;47.50;;;;;;5013159;28;20428;-73
2023/06/10 11:10:12;;;;;;;9.60;7.10;;;28.60;47.70;;;;;;5010818;28;20456;-72
2023/06/10 11:12:54;;;;;;;9.77;7.00;;;28.20;48.60;;;;;;5022946;28;20464;-72
2023/06/10 11:15:25;;;;;;;9.37;7.40;;;28.30;48.20;;;;;;5002896;28;20418;-73
2023/06/10 11:18:13;;;;;;;8.13;7.07;;;28.40;48.10;;;;;;5009419;28;20436;-72
2023/06/10 11:20:48;;;;;;;10.60;7.57;;;28.40;48.50;;;;;;5003665;28;20447;-71
2023/06/10 11:23:29;;;;;;;9.13;7.60;;;28.10;48.60;;;;;;5004109;28;20421;-72
2023/06/10 11:26:26;;;;;;;7.90;6.73;;;28.00;49.40;;;;;;5005641;28;20555;-73
2023/06/10 11:28:54;;;;;;;10.00;8.10;;;28.10;49.40;;;;;;5004209;28;20452;-73
2023/06/10 11:31:21;;;;;;;9.77;7.83;;;27.10;50.10;;;;;;5006647;28;20484;-72
2023/06/10 11:33:48;;;;;;;9.07;7.60;;;26.60;51.80;;;;;;5007364;28;20426;-72
2023/06/10 11:36:14;;;;;;;12.83;7.17;;;26.50;52.10;;;;;;5008421;28;20424;-72
2023/06/10 11:38:44;;;;;;;8.37;6.63;;;27.10;51.30;;;;;;5009622;28;20425;-72
2023/06/10 11:41:11;;;;;;;11.40;7.97;;;27.90;50.10;;;;;;5004898;28;20506;-72
2023/06/10 11:43:44;;;;;;;8.53;6.77;;;28.60;48.20;;;;;;5006975;28;20547;-73
2023/06/10 11:46:10;;;;;;;9.50;7.13;;;28.60;47.40;;;;;;5004058;28;20417;-73
2023/06/10 11:48:35;;;;;;;10.10;7.30;;;28.50;47.80;;;;;;5009347;28;20453;-72
2023/06/10 11:51:05;;;;;;;9.40;7.30;;;28.20;48.50;;;;;;5006559;28;20640;-73
2023/06/10 11:53:31;;;;;;;8.50;6.87;;;28.30;48.20;;;;;;5011520;28;20186;-72
2023/06/10 11:55:56;;;;;;;8.90;7.57;;;28.40;47.70;;;;;;5011800;28;20528;-73
2023/06/10 11:58:22;;;;;;;12.50;7.43;;;28.80;46.60;;;;;;5012716;28;20197;-72
2023/06/10 12:00:48;;;;;;;9.90;7.60;;;28.70;47.10;;;;;;5010050;28;20565;-72
2023/06/10 12:03:14;;;;;;;10.43;7.70;;;27.90;48.10;;;;;;5009831;28;20214;-71
2023/06/10 12:05:40;;;;;;;11.03;7.40;;;28.10;47.80;;;;;;5011304;28;20433;-72
2023/06/10 12:08:12;;;;;;;10.03;7.77;;;28.40;47.70;;;;;;5012918;28;20182;-72
2023/06/10 12:10:42;;;;;;;9.03;7.20;;;27.20;49.40;;;;;;5007587;28;20681;-74
2023/06/10 12:13:10;;;;;;;10.50;8.00;;;27.20;49.50;;;;;;5009567;28;20435;-72
2023/06/10 12:15:36;;;;;;;10.53;7.97;;;27.30;49.30;;;;;;5009187;28;20432;-73
2023/06/10 12:18:02;;;;;;;11.30;7.40;;;26.90;50.30;;;;;;5012476;28;20475;-72
2023/06/10 12:20:33;;;;;;;9.50;7.57;;;26.90;50.60;;;;;;5013993;28;20245;-71
2023/06/10 12:23:00;;;;;;;8.20;7.30;;;27.40;49.40;;;;;;5011234;28;20461;-71
2023/06/10 12:25:27;;;;;;;11.87;8.33;;;27.30;49.10;;;;;;5009048;28;20430;-72
2023/06/10 12:27:55;;;;;;;8.83;7.20;;;27.10;50.10;;;;;;5014158;28;20428;-72
2023/06/10 12:30:23;;;;;;;9.00;6.90;;;27.40;49.10;;;;;;5012659;28;20471;-72
2023/06/10 12:32:52;;;;;;;8.03;6.50;;;27.20;48.90;;;;;;5011058;28;20454;-71
2023/06/10 12:35:24;;;;;;;9.73;7.00;;;27.40;47.40;;;;;;5010220;28;20424;-72
2023/06/10 12:38:06;;;;;;;7.07;6.43;;;26.80;48.10;;;;;;5020636;28;20791;-73
2023/06/10 12:40:34;;;;;;;9.03;7.07;;;27.00;47.90;;;;;;5020339;28;20515;-73